EST,Max TemperatureF,Mean TemperatureF,Min TemperatureF,Max Dew PointF,MeanDew PointF,Min DewpointF,Max Humidity, Mean Humidity, Min Humidity, Max Sea Level PressureIn, Mean Sea Level PressureIn, Min Sea Level PressureIn, Max VisibilityMiles, Mean VisibilityMiles, Min VisibilityMiles, Max Wind SpeedMPH, Mean Wind SpeedMPH, Max Gust SpeedMPH,PrecipitationIn, CloudCover, Events, WindDirDegrees
2012-12-1,41,37,32,40,34,30,100,91,82,30.34,30.11,29.87,10,4,1,16,9,22,0.29,8,Rain,152
2012-12-2,49,44,39,48,43,35,100,88,76,30.12,29.89,29.79,10,7,0,12,5,18,0.38,8,Fog-Rain,262
2012-12-3,59,48,37,56,45,34,100,93,85,30.16,29.95,29.72,10,6,1,18,9,25,0.07,8,Rain,167
2012-12-4,60,45,29,57,35,15,87,69,50,30.13,29.89,29.70,10,10,8,22,10,31,0.15,6,Rain,267
2012-12-5,31,24,16,23,18,14,92,75,58,30.43,30.34,30.15,10,9,1,22,7,28,T,4,Snow,318
2012-12-6,36,28,19,27,24,16,92,81,69,30.34,30.12,29.89,10,10,10,20,10,25,0.00,6,,177
2012-12-7,40,35,30,33,28,25,85,75,64,30.01,29.95,29.86,10,10,9,12,5,15,0.00,6,,323
2012-12-8,35,31,27,28,24,20,85,74,63,30.20,30.02,29.93,10,9,2,16,6,21,T,8,Snow,326
2012-12-9,33,29,25,29,25,19,92,81,69,30.26,30.06,29.73,10,4,0,20,10,29,0.36,8,Fog-Snow,68
2012-12-10,32,27,22,31,24,16,100,87,74,29.91,29.68,29.59,10,5,1,18,8,23,0.04,8,Snow,345
2012-12-11,29,23,17,23,19,16,92,80,68,30.02,29.97,29.91,10,10,6,17,6,23,T,7,Snow,200
2012-12-12,36,30,23,25,22,19,88,72,56,30.29,30.19,30.04,10,10,8,14,6,18,T,5,Snow,205
2012-12-13,42,37,31,27,24,23,72,61,49,30.25,30.16,30.07,10,10,10,20,9,25,0.00,3,,200
2012-12-14,34,27,20,27,24,18,92,78,64,30.30,30.22,30.08,10,10,3,12,4,15,0.00,5,,310
2012-12-15,38,35,31,36,33,27,92,84,75,30.25,30.01,29.73,10,8,5,22,11,31,0.26,8,Rain,127
2012-12-16,46,42,38,45,41,37,100,96,92,29.69,29.57,29.52,4,2,0,17,3,22,0.17,8,Fog-Rain,175
2012-12-17,42,38,34,41,36,32,100,90,79,29.69,29.64,29.57,10,10,9,9,4,14,0.05,7,Rain,251
2012-12-18,41,34,26,32,29,26,100,80,59,29.78,29.71,29.67,10,10,10,9,3,14,0.00,6,,284
2012-12-19,40,33,25,30,27,24,100,80,59,30.16,29.99,29.78,10,10,10,12,2,16,0.00,5,,267
2012-12-20,37,31,24,34,31,22,100,91,82,30.11,29.64,29.20,10,4,0,31,13,44,0.89,8,Fog-Rain-Snow,97
2012-12-21,34,30,26,33,24,19,100,88,75,29.85,29.48,29.15,10,4,1,31,22,38,0.12,8,Rain-Snow,339
2012-12-22,29,27,24,22,20,17,81,75,69,30.00,29.96,29.88,10,10,10,22,10,35,T,8,,274
2012-12-23,28,26,24,23,18,13,81,71,60,30.04,29.92,29.80,10,10,8,22,9,29,T,8,Snow,283
2012-12-24,28,26,23,23,20,17,96,82,68,30.08,30.00,29.94,10,8,1,9,4,12,0.05,8,Snow,297
2012-12-25,28,25,21,22,20,17,88,81,74,30.42,30.29,30.05,10,8,2,10,3,12,T,8,Snow,319
2012-12-26,26,24,21,20,18,16,92,80,68,30.38,30.24,30.11,10,6,1,21,12,26,T,8,Snow,33
2012-12-27,25,19,12,18,15,10,92,80,68,30.17,30.13,30.08,10,10,10,16,9,20,T,5,,327
2012-12-28,24,16,8,18,13,7,92,74,55,30.17,30.11,30.03,10,10,10,5,1,8,T,6,,276
2012-12-29,25,22,19,22,18,14,92,82,71,30.02,29.95,29.87,10,9,4,14,7,18,0.01,7,Snow,328
2012-12-30,28,21,14,21,17,11,88,76,63,30.21,30.13,29.99,10,10,8,14,6,20,T,7,Snow,237
2012-12-31,32,27,21,26,19,8,85,77,68,30.03,29.92,29.82,10,7,2,18,8,25,T,7,Snow,268